sensor_id;sensor_type;location;lat;lon;timestamp;temperature;humidity
5711;DHT22;61291;52.524;13.422;2023-06-14T00:01:51;13.90;85.70
5711;DHT22;61291;52.524;13.422;2023-06-14T00:04:17;13.80;86.00
5711;DHT22;61291;52.524;13.422;2023-06-14T00:06:44;13.80;86.40
5711;DHT22;61291;52.524;13.422;2023-06-14T00:09:13;13.80;86.80
5711;DHT22;61291;52.524;13.422;2023-06-14T00:11:41;13.80;86.80
5711;DHT22;61291;52.524;13.422;2023-06-14T00:14:06;13.70;87.60
5711;DHT22;61291;52.524;13.422;2023-06-14T00:16:32;13.70;87.60
5711;DHT22;61291;52.524;13.422;2023-06-14T00:19:01;13.60;87.60
5711;DHT22;61291;52.524;13.422;2023-06-14T00:21:29;13.60;88.50
5711;DHT22;61291;52.524;13.422;2023-06-14T00:23:55;13.50;89.40
5711;DHT22;61291;52.524;13.422;2023-06-14T00:26:21;13.50;89.70
5711;DHT22;61291;52.524;13.422;2023-06-14T00:28:46;13.40;89.60
5711;DHT22;61291;52.524;13.422;2023-06-14T00:31:12;13.40;90.30
5711;DHT22;61291;52.524;13.422;2023-06-14T00:33:37;13.40;90.80
5711;DHT22;61291;52.524;13.422;2023-06-14T00:36:03;13.40;91.20
5711;DHT22;61291;52.524;13.422;2023-06-14T00:38:28;13.40;91.10
5711;DHT22;61291;52.524;13.422;2023-06-14T00:40:54;13.50;91.40
5711;DHT22;61291;52.524;13.422;2023-06-14T00:43:19;13.30;91.50
5711;DHT22;61291;52.524;13.422;2023-06-14T00:45:45;13.40;91.90
5711;DHT22;61291;52.524;13.422;2023-06-14T00:48:11;13.30;92.20
5711;DHT22;61291;52.524;13.422;2023-06-14T00:50:36;13.40;92.40
5711;DHT22;61291;52.524;13.422;2023-06-14T00:53:03;13.30;92.30
5711;DHT22;61291;52.524;13.422;2023-06-14T00:55:30;13.30;92.70
5711;DHT22;61291;52.524;13.422;2023-06-14T00:57:55;13.30;93.30
5711;DHT22;61291;52.524;13.422;2023-06-14T01:00:22;13.20;93.50
5711;DHT22;61291;52.524;13.422;2023-06-14T01:02:47;13.20;93.90
5711;DHT22;61291;52.524;13.422;2023-06-14T01:05:15;13.20;94.30
5711;DHT22;61291;52.524;13.422;2023-06-14T01:08:11;13.20;94.70
5711;DHT22;61291;52.524;13.422;2023-06-14T01:10:50;13.30;95.40
5711;DHT22;61291;52.524;13.422;2023-06-14T01:13:39;13.20;95.40
5711;DHT22;61291;52.524;13.422;2023-06-14T01:16:07;13.20;95.80
5711;DHT22;61291;52.524;13.422;2023-06-14T01:18:33;13.10;96.30
5711;DHT22;61291;52.524;13.422;2023-06-14T01:20:59;13.10;96.70
5711;DHT22;61291;52.524;13.422;2023-06-14T01:23:25;13.10;97.00
5711;DHT22;61291;52.524;13.422;2023-06-14T01:25:58;13.10;97.50
5711;DHT22;61291;52.524;13.422;2023-06-14T01:28:24;13.10;97.60
5711;DHT22;61291;52.524;13.422;2023-06-14T01:30:53;13.10;98.30
5711;DHT22;61291;52.524;13.422;2023-06-14T01:33:21;13.10;98.60
5711;DHT22;61291;52.524;13.422;2023-06-14T01:35:49;13.00;98.60
5711;DHT22;61291;52.524;13.422;2023-06-14T01:38:17;13.00;99.50
5711;DHT22;61291;52.524;13.422;2023-06-14T01:40:44;13.00;99.30
5711;DHT22;61291;52.524;13.422;2023-06-14T01:43:11;13.00;99.90
5711;DHT22;61291;52.524;13.422;2023-06-14T01:45:39;13.00;99.90
5711;DHT22;61291;52.524;13.422;2023-06-14T01:48:05;13.00;99.90
5711;DHT22;61291;52.524;13.422;2023-06-14T01:50:31;13.00;99.90
5711;DHT22;61291;52.524;13.422;2023-06-14T01:52:57;13.10;99.90
5711;DHT22;61291;52.524;13.422;2023-06-14T01:55:22;13.10;99.90
5711;DHT22;61291;52.524;13.422;2023-06-14T01:57:50;13.20;99.90
5711;DHT22;61291;52.524;13.422;2023-06-14T02:00:16;13.10;99.90
5711;DHT22;61291;52.524;13.422;2023-06-14T02:02:43;13.00;99.90
5711;DHT22;61291;52.524;13.422;2023-06-14T02:05:09;13.00;99.90
5711;DHT22;61291;52.524;13.422;2023-06-14T02:07:36;13.00;99.90
5711;DHT22;61291;52.524;13.422;2023-06-14T02:10:02;12.80;99.90
5711;DHT22;61291;52.524;13.422;2023-06-14T02:12:28;12.90;99.90
5711;DHT22;61291;52.524;13.422;2023-06-14T02:14:53;12.90;99.90
5711;DHT22;61291;52.524;13.422;2023-06-14T02:17:19;12.80;99.90
5711;DHT22;61291;52.524;13.422;2023-06-14T02:19:45;12.80;99.90
5711;DHT22;61291;52.524;13.422;2023-06-14T02:22:11;12.80;99.90
5711;DHT22;61291;52.524;13.422;2023-06-14T02:24:36;12.80;99.90
5711;DHT22;61291;52.524;13.422;2023-06-14T02:27:02;12.80;99.90
5711;DHT22;61291;52.524;13.422;2023-06-14T02:29:28;12.80;99.90
5711;DHT22;61291;52.524;13.422;2023-06-14T02:31:54;12.80;99.90
5711;DHT22;61291;52.524;13.422;2023-06-14T02:34:19;12.90;99.90
5711;DHT22;61291;52.524;13.422;2023-06-14T02:36:47;12.80;99.90
5711;DHT22;61291;52.524;13.422;2023-06-14T02:39:13;12.80;99.90
5711;DHT22;61291;52.524;13.422;2023-06-14T02:41:38;12.80;99.90
5711;DHT22;61291;52.524;13.422;2023-06-14T02:44:04;12.80;99.90
5711;DHT22;61291;52.524;13.422;2023-06-14T02:46:30;12.80;99.90
5711;DHT22;61291;52.524;13.422;2023-06-14T02:48:55;12.80;99.90
5711;DHT22;61291;52.524;13.422;2023-06-14T02:51:21;12.80;99.90
5711;DHT22;61291;52.524;13.422;2023-06-14T02:53:46;12.80;99.90
5711;DHT22;61291;52.524;13.422;2023-06-14T02:56:12;12.80;99.90
5711;DHT22;61291;52.524;13.422;2023-06-14T02:58:38;12.80;99.90
5711;DHT22;61291;52.524;13.422;2023-06-14T03:01:05;12.80;99.90
5711;DHT22;61291;52.524;13.422;2023-06-14T03:03:30;12.80;99.90
5711;DHT22;61291;52.524;13.422;2023-06-14T03:05:56;12.80;99.90
5711;DHT22;61291;52.524;13.422;2023-06-14T03:08:22;12.80;99.90
5711;DHT22;61291;52.524;13.422;2023-06-14T03:10:52;12.90;99.90
5711;DHT22;61291;52.524;13.422;2023-06-14T03:13:18;12.90;99.90
5711;DHT22;61291;52.524;13.422;2023-06-14T03:15:46;12.90;99.90
5711;DHT22;61291;52.524;13.422;2023-06-14T03:18:16;12.90;99.90
5711;DHT22;61291;52.524;13.422;2023-06-14T03:20:41;12.90;99.90
5711;DHT22;61291;52.524;13.422;2023-06-14T03:23:11;12.90;99.90
5711;DHT22;61291;52.524;13.422;2023-06-14T03:25:37;12.80;99.90
5711;DHT22;61291;52.524;13.422;2023-06-14T03:28:04;12.80;99.90
5711;DHT22;61291;52.524;13.422;2023-06-14T03:30:30;12.80;99.90
5711;DHT22;61291;52.524;13.422;2023-06-14T03:32:56;12.80;99.90
5711;DHT22;61291;52.524;13.422;2023-06-14T03:35:22;12.90;99.90
5711;DHT22;61291;52.524;13.422;2023-06-14T03:37:48;12.90;99.90
5711;DHT22;61291;52.524;13.422;2023-06-14T03:40:16;13.00;99.90
5711;DHT22;61291;52.524;13.422;2023-06-14T03:42:42;13.00;99.90
5711;DHT22;61291;52.524;13.422;2023-06-14T03:45:07;13.00;99.90
5711;DHT22;61291;52.524;13.422;2023-06-14T03:47:34;13.00;99.90
5711;DHT22;61291;52.524;13.422;2023-06-14T03:50:00;13.00;99.90
5711;DHT22;61291;52.524;13.422;2023-06-14T03:52:26;13.10;99.90
5711;DHT22;61291;52.524;13.422;2023-06-14T03:54:52;13.20;99.90
5711;DHT22;61291;52.524;13.422;2023-06-14T03:57:18;13.30;99.90
5711;DHT22;61291;52.524;13.422;2023-06-14T03:59:43;13.50;99.90
5711;DHT22;61291;52.524;13.422;2023-06-14T04:02:09;13.70;99.90
5711;DHT22;61291;52.524;13.422;2023-06-14T04:04:35;14.00;99.90
5711;DHT22;61291;52.524;13.422;2023-06-14T04:07:00;14.30;99.90
5711;DHT22;61291;52.524;13.422;2023-06-14T04:09:28;14.70;99.90
5711;DHT22;61291;52.524;13.422;2023-06-14T04:11:54;14.90;99.90
5711;DHT22;61291;52.524;13.422;2023-06-14T04:14:20;15.00;99.90
5711;DHT22;61291;52.524;13.422;2023-06-14T04:16:47;15.00;99.90
5711;DHT22;61291;52.524;13.422;2023-06-14T04:19:12;15.90;99.90
5711;DHT22;61291;52.524;13.422;2023-06-14T04:21:38;16.80;99.90
5711;DHT22;61291;52.524;13.422;2023-06-14T04:24:04;17.60;99.90
5711;DHT22;61291;52.524;13.422;2023-06-14T04:26:29;18.50;99.90
5711;DHT22;61291;52.524;13.422;2023-06-14T04:28:59;19.00;98.70
5711;DHT22;61291;52.524;13.422;2023-06-14T04:31:29;19.80;97.70
5711;DHT22;61291;52.524;13.422;2023-06-14T04:33:55;20.10;94.10
5711;DHT22;61291;52.524;13.422;2023-06-14T04:36:21;19.90;92.30
5711;DHT22;61291;52.524;13.422;2023-06-14T04:38:46;19.80;91.90
5711;DHT22;61291;52.524;13.422;2023-06-14T04:41:12;19.80;91.10
5711;DHT22;61291;52.524;13.422;2023-06-14T04:43:38;19.90;90.80
5711;DHT22;61291;52.524;13.422;2023-06-14T04:46:07;19.70;90.40
5711;DHT22;61291;52.524;13.422;2023-06-14T04:48:39;19.30;90.30
5711;DHT22;61291;52.524;13.422;2023-06-14T04:51:07;19.20;90.40
5711;DHT22;61291;52.524;13.422;2023-06-14T04:53:32;19.10;90.20
5711;DHT22;61291;52.524;13.422;2023-06-14T04:55:58;19.10;90.30
5711;DHT22;61291;52.524;13.422;2023-06-14T04:58:23;18.60;90.50
5711;DHT22;61291;52.524;13.422;2023-06-14T05:00:49;18.60;90.60
5711;DHT22;61291;52.524;13.422;2023-06-14T05:03:14;18.40;90.80
5711;DHT22;61291;52.524;13.422;2023-06-14T05:05:41;18.20;91.00
5711;DHT22;61291;52.524;13.422;2023-06-14T05:08:07;18.20;91.10
5711;DHT22;61291;52.524;13.422;2023-06-14T05:10:32;17.80;91.40
5711;DHT22;61291;52.524;13.422;2023-06-14T05:13:00;17.60;91.70
5711;DHT22;61291;52.524;13.422;2023-06-14T05:15:25;17.40;91.90
5711;DHT22;61291;52.524;13.422;2023-06-14T05:17:52;17.60;91.90
5711;DHT22;61291;52.524;13.422;2023-06-14T05:20:21;17.60;92.00
5711;DHT22;61291;52.524;13.422;2023-06-14T05:22:48;17.80;91.90
5711;DHT22;61291;52.524;13.422;2023-06-14T05:25:15;18.10;91.80
5711;DHT22;61291;52.524;13.422;2023-06-14T05:27:40;18.40;91.50
5711;DHT22;61291;52.524;13.422;2023-06-14T05:30:07;18.40;91.20
5711;DHT22;61291;52.524;13.422;2023-06-14T05:32:33;18.40;91.30
5711;DHT22;61291;52.524;13.422;2023-06-14T05:34:59;18.50;91.30
5711;DHT22;61291;52.524;13.422;2023-06-14T05:37:24;18.60;91.00
5711;DHT22;61291;52.524;13.422;2023-06-14T05:39:50;18.80;90.70
5711;DHT22;61291;52.524;13.422;2023-06-14T05:42:15;18.60;90.70
5711;DHT22;61291;52.524;13.422;2023-06-14T05:44:41;18.90;90.60
5711;DHT22;61291;52.524;13.422;2023-06-14T05:47:06;19.00;90.20
5711;DHT22;61291;52.524;13.422;2023-06-14T05:49:32;19.10;90.10
5711;DHT22;61291;52.524;13.422;2023-06-14T05:51:57;18.60;90.30
5711;DHT22;61291;52.524;13.422;2023-06-14T05:54:23;18.70;90.30
5711;DHT22;61291;52.524;13.422;2023-06-14T05:56:48;18.80;90.10
5711;DHT22;61291;52.524;13.422;2023-06-14T05:59:14;18.70;90.10
5711;DHT22;61291;52.524;13.422;2023-06-14T06:01:39;18.70;90.10
5711;DHT22;61291;52.524;13.422;2023-06-14T06:04:07;18.70;90.00
5711;DHT22;61291;52.524;13.422;2023-06-14T06:06:33;18.40;90.30
5711;DHT22;61291;52.524;13.422;2023-06-14T06:08:59;18.30;90.60
5711;DHT22;61291;52.524;13.422;2023-06-14T06:11:25;18.10;90.70
5711;DHT22;61291;52.524;13.422;2023-06-14T06:13:51;17.80;91.10
5711;DHT22;61291;52.524;13.422;2023-06-14T06:16:16;17.80;91.30
5711;DHT22;61291;52.524;13.422;2023-06-14T06:18:42;17.70;91.70
5711;DHT22;61291;52.524;13.422;2023-06-14T06:21:07;17.60;91.90
5711;DHT22;61291;52.524;13.422;2023-06-14T06:23:33;17.70;92.00
5711;DHT22;61291;52.524;13.422;2023-06-14T06:25:58;17.90;91.90
5711;DHT22;61291;52.524;13.422;2023-06-14T06:28:23;18.10;91.60
5711;DHT22;61291;52.524;13.422;2023-06-14T06:30:49;18.30;91.40
5711;DHT22;61291;52.524;13.422;2023-06-14T06:33:16;18.20;91.40
5711;DHT22;61291;52.524;13.422;2023-06-14T06:35:41;18.00;91.40
5711;DHT22;61291;52.524;13.422;2023-06-14T06:38:08;18.00;91.40
5711;DHT22;61291;52.524;13.422;2023-06-14T06:40:35;18.10;91.30
5711;DHT22;61291;52.524;13.422;2023-06-14T06:43:02;18.20;91.30
5711;DHT22;61291;52.524;13.422;2023-06-14T06:45:27;18.10;91.30
5711;DHT22;61291;52.524;13.422;2023-06-14T06:47:53;18.00;91.50
5711;DHT22;61291;52.524;13.422;2023-06-14T06:50:19;18.20;91.50
5711;DHT22;61291;52.524;13.422;2023-06-14T06:52:53;18.50;91.30
5711;DHT22;61291;52.524;13.422;2023-06-14T06:55:20;19.00;90.90
5711;DHT22;61291;52.524;13.422;2023-06-14T06:57:45;19.40;90.70
5711;DHT22;61291;52.524;13.422;2023-06-14T07:00:11;19.50;90.30
5711;DHT22;61291;52.524;13.422;2023-06-14T07:02:37;19.70;90.00
5711;DHT22;61291;52.524;13.422;2023-06-14T07:05:03;19.20;90.00
5711;DHT22;61291;52.524;13.422;2023-06-14T07:07:29;19.40;89.60
5711;DHT22;61291;52.524;13.422;2023-06-14T07:09:55;19.50;89.90
5711;DHT22;61291;52.524;13.422;2023-06-14T07:12:23;19.70;89.00
5711;DHT22;61291;52.524;13.422;2023-06-14T07:14:48;19.90;87.90
5711;DHT22;61291;52.524;13.422;2023-06-14T07:17:13;19.80;88.00
5711;DHT22;61291;52.524;13.422;2023-06-14T07:19:39;19.90;87.60
5711;DHT22;61291;52.524;13.422;2023-06-14T07:22:04;19.70;87.80
5711;DHT22;61291;52.524;13.422;2023-06-14T07:24:30;20.00;86.90
5711;DHT22;61291;52.524;13.422;2023-06-14T07:26:55;19.70;87.60
5711;DHT22;61291;52.524;13.422;2023-06-14T07:29:21;20.20;87.10
5711;DHT22;61291;52.524;13.422;2023-06-14T07:31:47;20.50;86.60
5711;DHT22;61291;52.524;13.422;2023-06-14T07:34:13;20.30;86.70
5711;DHT22;61291;52.524;13.422;2023-06-14T07:36:38;21.10;86.20
5711;DHT22;61291;52.524;13.422;2023-06-14T07:39:04;22.40;83.90
5711;DHT22;61291;52.524;13.422;2023-06-14T07:41:32;22.50;82.40
5711;DHT22;61291;52.524;13.422;2023-06-14T07:43:58;23.00;81.40
5711;DHT22;61291;52.524;13.422;2023-06-14T07:46:23;24.10;79.40
5711;DHT22;61291;52.524;13.422;2023-06-14T07:48:49;25.30;78.40
5711;DHT22;61291;52.524;13.422;2023-06-14T07:51:14;26.10;72.90
5711;DHT22;61291;52.524;13.422;2023-06-14T07:53:40;26.70;72.40
5711;DHT22;61291;52.524;13.422;2023-06-14T07:56:06;26.90;69.70
5711;DHT22;61291;52.524;13.422;2023-06-14T07:58:31;26.10;69.30
5711;DHT22;61291;52.524;13.422;2023-06-14T08:00:57;27.10;67.30
5711;DHT22;61291;52.524;13.422;2023-06-14T08:03:22;26.90;67.10
5711;DHT22;61291;52.524;13.422;2023-06-14T08:05:48;27.60;66.30
5711;DHT22;61291;52.524;13.422;2023-06-14T08:08:13;26.40;66.60
5711;DHT22;61291;52.524;13.422;2023-06-14T08:10:39;25.90;66.50
5711;DHT22;61291;52.524;13.422;2023-06-14T08:13:04;25.20;67.20
5711;DHT22;61291;52.524;13.422;2023-06-14T08:15:30;23.90;69.30
5711;DHT22;61291;52.524;13.422;2023-06-14T08:17:56;23.20;70.60
5711;DHT22;61291;52.524;13.422;2023-06-14T08:20:21;23.30;70.70
5711;DHT22;61291;52.524;13.422;2023-06-14T08:22:47;23.40;70.90
5711;DHT22;61291;52.524;13.422;2023-06-14T08:25:13;23.40;71.30
5711;DHT22;61291;52.524;13.422;2023-06-14T08:27:39;23.80;70.40
5711;DHT22;61291;52.524;13.422;2023-06-14T08:30:05;24.00;70.10
5711;DHT22;61291;52.524;13.422;2023-06-14T08:32:33;23.60;70.20
5711;DHT22;61291;52.524;13.422;2023-06-14T08:35:01;22.80;71.40
5711;DHT22;61291;52.524;13.422;2023-06-14T08:37:27;23.00;71.20
5711;DHT22;61291;52.524;13.422;2023-06-14T08:39:55;22.50;71.70
5711;DHT22;61291;52.524;13.422;2023-06-14T08:42:21;22.50;72.30
5711;DHT22;61291;52.524;13.422;2023-06-14T08:44:49;22.80;71.90
5711;DHT22;61291;52.524;13.422;2023-06-14T08:47:15;22.80;70.60
5711;DHT22;61291;52.524;13.422;2023-06-14T08:49:45;22.30;71.80
5711;DHT22;61291;52.524;13.422;2023-06-14T08:52:13;22.70;71.30
5711;DHT22;61291;52.524;13.422;2023-06-14T08:54:40;23.60;70.90
5711;DHT22;61291;52.524;13.422;2023-06-14T08:57:12;24.70;69.60
5711;DHT22;61291;52.524;13.422;2023-06-14T08:59:46;24.70;68.40
5711;DHT22;61291;52.524;13.422;2023-06-14T09:02:14;24.60;67.40
5711;DHT22;61291;52.524;13.422;2023-06-14T09:04:43;24.80;67.70
5711;DHT22;61291;52.524;13.422;2023-06-14T09:07:10;25.10;67.30
5711;DHT22;61291;52.524;13.422;2023-06-14T09:09:39;25.30;66.10
5711;DHT22;61291;52.524;13.422;2023-06-14T09:12:15;26.00;64.30
5711;DHT22;61291;52.524;13.422;2023-06-14T09:14:41;26.20;63.10
5711;DHT22;61291;52.524;13.422;2023-06-14T09:17:08;26.50;62.10
5711;DHT22;61291;52.524;13.422;2023-06-14T09:19:34;26.90;61.40
5711;DHT22;61291;52.524;13.422;2023-06-14T09:22:01;27.60;60.50
5711;DHT22;61291;52.524;13.422;2023-06-14T09:24:26;27.70;59.80
5711;DHT22;61291;52.524;13.422;2023-06-14T09:26:52;26.70;60.50
5711;DHT22;61291;52.524;13.422;2023-06-14T09:29:18;25.90;61.70
5711;DHT22;61291;52.524;13.422;2023-06-14T09:31:46;26.70;60.90
5711;DHT22;61291;52.524;13.422;2023-06-14T09:34:12;27.00;59.90
5711;DHT22;61291;52.524;13.422;2023-06-14T09:36:40;25.40;62.80
5711;DHT22;61291;52.524;13.422;2023-06-14T09:39:08;25.40;63.10
5711;DHT22;61291;52.524;13.422;2023-06-14T09:41:43;26.50;62.00
5711;DHT22;61291;52.524;13.422;2023-06-14T09:44:10;26.70;61.50
5711;DHT22;61291;52.524;13.422;2023-06-14T09:46:39;26.90;61.10
5711;DHT22;61291;52.524;13.422;2023-06-14T09:49:05;27.80;60.60
5711;DHT22;61291;52.524;13.422;2023-06-14T09:51:31;28.30;59.20
5711;DHT22;61291;52.524;13.422;2023-06-14T09:54:03;27.50;59.30
5711;DHT22;61291;52.524;13.422;2023-06-14T09:56:37;27.20;59.40
5711;DHT22;61291;52.524;13.422;2023-06-14T09:59:05;26.40;60.60
5711;DHT22;61291;52.524;13.422;2023-06-14T10:01:34;27.00;59.10
5711;DHT22;61291;52.524;13.422;2023-06-14T10:04:03;27.30;59.10
5711;DHT22;61291;52.524;13.422;2023-06-14T10:06:29;26.60;59.50
5711;DHT22;61291;52.524;13.422;2023-06-14T10:08:59;27.10;59.00
5711;DHT22;61291;52.524;13.422;2023-06-14T10:11:28;26.80;58.90
5711;DHT22;61291;52.524;13.422;2023-06-14T10:13:55;25.80;59.90
5711;DHT22;61291;52.524;13.422;2023-06-14T10:16:32;26.10;60.30
5711;DHT22;61291;52.524;13.422;2023-06-14T10:19:17;26.60;60.10
5711;DHT22;61291;52.524;13.422;2023-06-14T10:24:32;26.20;58.90
5711;DHT22;61291;52.524;13.422;2023-06-14T10:26:58;26.10;59.20
5711;DHT22;61291;52.524;13.422;2023-06-14T10:29:28;26.20;59.90
5711;DHT22;61291;52.524;13.422;2023-06-14T10:31:58;26.30;59.70
5711;DHT22;61291;52.524;13.422;2023-06-14T10:34:26;26.60;59.80
5711;DHT22;61291;52.524;13.422;2023-06-14T10:37:11;27.40;58.90
5711;DHT22;61291;52.524;13.422;2023-06-14T10:39:42;27.20;58.10
5711;DHT22;61291;52.524;13.422;2023-06-14T10:42:08;26.20;59.40
5711;DHT22;61291;52.524;13.422;2023-06-14T10:44:43;26.30;59.40
5711;DHT22;61291;52.524;13.422;2023-06-14T10:47:32;26.80;59.10
5711;DHT22;61291;52.524;13.422;2023-06-14T10:50:05;26.30;58.20
5711;DHT22;61291;52.524;13.422;2023-06-14T10:52:33;27.40;57.70
5711;DHT22;61291;52.524;13.422;2023-06-14T10:55:14;26.90;58.30
5711;DHT22;61291;52.524;13.422;2023-06-14T10:57:51;26.90;57.90
5711;DHT22;61291;52.524;13.422;2023-06-14T11:00:24;27.40;57.90
5711;DHT22;61291;52.524;13.422;2023-06-14T11:05:57;26.70;57.60
5711;DHT22;61291;52.524;13.422;2023-06-14T11:11:31;27.50;57.60
5711;DHT22;61291;52.524;13.422;2023-06-14T11:13:59;27.70;57.00
5711;DHT22;61291;52.524;13.422;2023-06-14T11:16:27;28.00;56.80
5711;DHT22;61291;52.524;13.422;2023-06-14T11:18:53;28.40;56.50
5711;DHT22;61291;52.524;13.422;2023-06-14T11:21:19;27.90;56.60
5711;DHT22;61291;52.524;13.422;2023-06-14T11:23:52;27.70;57.00
5711;DHT22;61291;52.524;13.422;2023-06-14T11:26:28;27.50;57.10
5711;DHT22;61291;52.524;13.422;2023-06-14T11:28:58;27.70;56.70
5711;DHT22;61291;52.524;13.422;2023-06-14T11:31:25;27.90;56.30
5711;DHT22;61291;52.524;13.422;2023-06-14T11:33:54;28.10;56.20
5711;DHT22;61291;52.524;13.422;2023-06-14T11:36:20;27.70;56.30
5711;DHT22;61291;52.524;13.422;2023-06-14T11:38:45;27.70;56.40
5711;DHT22;61291;52.524;13.422;2023-06-14T11:41:11;27.50;56.30
5711;DHT22;61291;52.524;13.422;2023-06-14T11:43:36;27.70;56.20
5711;DHT22;61291;52.524;13.422;2023-06-14T11:46:02;28.00;56.10
5711;DHT22;61291;52.524;13.422;2023-06-14T11:48:38;27.80;56.30
5711;DHT22;61291;52.524;13.422;2023-06-14T11:51:04;27.90;55.90
5711;DHT22;61291;52.524;13.422;2023-06-14T11:53:30;28.30;55.90
5711;DHT22;61291;52.524;13.422;2023-06-14T11:55:56;28.40;55.70
5711;DHT22;61291;52.524;13.422;2023-06-14T11:58:22;28.00;55.50
5711;DHT22;61291;52.524;13.422;2023-06-14T12:00:50;27.60;55.80
5711;DHT22;61291;52.524;13.422;2023-06-14T12:03:17;27.20;56.00
5711;DHT22;61291;52.524;13.422;2023-06-14T12:05:42;26.90;56.10
5711;DHT22;61291;52.524;13.422;2023-06-14T12:08:09;26.70;56.40
5711;DHT22;61291;52.524;13.422;2023-06-14T12:10:41;26.20;56.80
5711;DHT22;61291;52.524;13.422;2023-06-14T12:13:10;25.90;56.80
5711;DHT22;61291;52.524;13.422;2023-06-14T12:15:36;25.60;57.30
5711;DHT22;61291;52.524;13.422;2023-06-14T12:18:05;25.10;57.30
5711;DHT22;61291;52.524;13.422;2023-06-14T12:20:32;24.90;57.30
5711;DHT22;61291;52.524;13.422;2023-06-14T12:23:03;24.70;57.70
5711;DHT22;61291;52.524;13.422;2023-06-14T12:28:06;24.00;58.30
5711;DHT22;61291;52.524;13.422;2023-06-14T12:30:33;24.00;58.40
5711;DHT22;61291;52.524;13.422;2023-06-14T12:32:59;23.70;58.00
5711;DHT22;61291;52.524;13.422;2023-06-14T12:35:25;23.80;57.70
5711;DHT22;61291;52.524;13.422;2023-06-14T12:37:51;23.60;57.50
5711;DHT22;61291;52.524;13.422;2023-06-14T12:40:16;23.40;57.20
5711;DHT22;61291;52.524;13.422;2023-06-14T12:42:42;23.60;57.30
5711;DHT22;61291;52.524;13.422;2023-06-14T12:45:08;24.10;56.90
5711;DHT22;61291;52.524;13.422;2023-06-14T12:47:34;24.40;56.50
5711;DHT22;61291;52.524;13.422;2023-06-14T12:49:59;24.80;55.80
5711;DHT22;61291;52.524;13.422;2023-06-14T12:52:25;25.30;55.70
5711;DHT22;61291;52.524;13.422;2023-06-14T12:54:50;25.60;55.30
5711;DHT22;61291;52.524;13.422;2023-06-14T12:57:16;26.00;54.90
5711;DHT22;61291;52.524;13.422;2023-06-14T12:59:41;26.00;54.80
5711;DHT22;61291;52.524;13.422;2023-06-14T13:04:36;26.90;53.20
5711;DHT22;61291;52.524;13.422;2023-06-14T13:07:02;27.10;52.70
5711;DHT22;61291;52.524;13.422;2023-06-14T13:09:27;26.90;52.80
5711;DHT22;61291;52.524;13.422;2023-06-14T13:11:53;27.00;52.90
5711;DHT22;61291;52.524;13.422;2023-06-14T13:14:18;26.60;53.00
5711;DHT22;61291;52.524;13.422;2023-06-14T13:16:44;26.40;53.00
5711;DHT22;61291;52.524;13.422;2023-06-14T13:19:09;26.50;53.10
5711;DHT22;61291;52.524;13.422;2023-06-14T13:21:35;26.30;53.00
5711;DHT22;61291;52.524;13.422;2023-06-14T13:24:00;26.00;53.30
5711;DHT22;61291;52.524;13.422;2023-06-14T13:26:26;25.60;53.70
5711;DHT22;61291;52.524;13.422;2023-06-14T13:28:52;25.60;53.90
5711;DHT22;61291;52.524;13.422;2023-06-14T13:31:17;26.00;53.70
5711;DHT22;61291;52.524;13.422;2023-06-14T13:33:43;26.40;52.70
5711;DHT22;61291;52.524;13.422;2023-06-14T13:36:08;26.70;52.30
5711;DHT22;61291;52.524;13.422;2023-06-14T13:38:34;26.80;52.00
5711;DHT22;61291;52.524;13.422;2023-06-14T13:40:59;26.80;51.70
5711;DHT22;61291;52.524;13.422;2023-06-14T13:43:25;27.10;52.10
5711;DHT22;61291;52.524;13.422;2023-06-14T13:45:50;27.10;51.80
5711;DHT22;61291;52.524;13.422;2023-06-14T13:48:17;27.10;51.80
5711;DHT22;61291;52.524;13.422;2023-06-14T13:50:42;27.70;51.20
5711;DHT22;61291;52.524;13.422;2023-06-14T13:53:08;27.80;51.10
5711;DHT22;61291;52.524;13.422;2023-06-14T13:55:33;27.50;51.40
5711;DHT22;61291;52.524;13.422;2023-06-14T13:57:58;27.40;51.40
5711;DHT22;61291;52.524;13.422;2023-06-14T14:00:24;27.60;51.40
5711;DHT22;61291;52.524;13.422;2023-06-14T14:02:50;27.70;51.50
5711;DHT22;61291;52.524;13.422;2023-06-14T14:05:16;27.30;51.40
5711;DHT22;61291;52.524;13.422;2023-06-14T14:07:41;27.70;51.10
5711;DHT22;61291;52.524;13.422;2023-06-14T14:10:07;27.80;50.90
5711;DHT22;61291;52.524;13.422;2023-06-14T14:12:33;28.20;50.80
5711;DHT22;61291;52.524;13.422;2023-06-14T14:14:59;28.20;50.80
5711;DHT22;61291;52.524;13.422;2023-06-14T14:17:25;28.30;50.70
5711;DHT22;61291;52.524;13.422;2023-06-14T14:19:50;28.20;50.90
5711;DHT22;61291;52.524;13.422;2023-06-14T14:22:16;28.40;51.00
5711;DHT22;61291;52.524;13.422;2023-06-14T14:24:41;28.40;51.00
5711;DHT22;61291;52.524;13.422;2023-06-14T14:27:07;28.50;51.00
5711;DHT22;61291;52.524;13.422;2023-06-14T14:29:33;28.10;50.80
5711;DHT22;61291;52.524;13.422;2023-06-14T14:31:59;27.60;51.20
5711;DHT22;61291;52.524;13.422;2023-06-14T14:34:25;27.30;51.50
5711;DHT22;61291;52.524;13.422;2023-06-14T14:36:50;26.80;51.80
5711;DHT22;61291;52.524;13.422;2023-06-14T14:39:16;26.50;51.60
5711;DHT22;61291;52.524;13.422;2023-06-14T14:41:41;26.20;51.90
5711;DHT22;61291;52.524;13.422;2023-06-14T14:44:07;25.50;53.50
5711;DHT22;61291;52.524;13.422;2023-06-14T14:46:32;25.30;54.00
5711;DHT22;61291;52.524;13.422;2023-06-14T14:48:59;24.70;55.00
5711;DHT22;61291;52.524;13.422;2023-06-14T14:51:25;24.60;55.40
5711;DHT22;61291;52.524;13.422;2023-06-14T14:53:50;24.50;55.60
5711;DHT22;61291;52.524;13.422;2023-06-14T14:56:16;24.60;55.60
5711;DHT22;61291;52.524;13.422;2023-06-14T14:58:42;24.70;55.50
5711;DHT22;61291;52.524;13.422;2023-06-14T15:01:08;24.10;56.00
5711;DHT22;61291;52.524;13.422;2023-06-14T15:03:33;24.40;55.70
5711;DHT22;61291;52.524;13.422;2023-06-14T15:05:59;24.00;56.20
5711;DHT22;61291;52.524;13.422;2023-06-14T15:08:24;23.80;56.40
5711;DHT22;61291;52.524;13.422;2023-06-14T15:10:49;23.50;56.60
5711;DHT22;61291;52.524;13.422;2023-06-14T15:13:15;23.40;56.90
5711;DHT22;61291;52.524;13.422;2023-06-14T15:15:40;23.30;56.90
5711;DHT22;61291;52.524;13.422;2023-06-14T15:18:06;23.30;56.80
5711;DHT22;61291;52.524;13.422;2023-06-14T15:20:31;23.40;56.60
5711;DHT22;61291;52.524;13.422;2023-06-14T15:22:57;23.40;56.60
5711;DHT22;61291;52.524;13.422;2023-06-14T15:25:26;23.60;56.70
5711;DHT22;61291;52.524;13.422;2023-06-14T15:27:51;24.10;56.30
5711;DHT22;61291;52.524;13.422;2023-06-14T15:30:17;24.00;56.30
5711;DHT22;61291;52.524;13.422;2023-06-14T15:32:42;24.20;56.00
5711;DHT22;61291;52.524;13.422;2023-06-14T15:35:08;24.30;56.00
5711;DHT22;61291;52.524;13.422;2023-06-14T15:37:33;24.40;55.70
5711;DHT22;61291;52.524;13.422;2023-06-14T15:39:59;24.70;55.70
5711;DHT22;61291;52.524;13.422;2023-06-14T15:42:24;24.80;55.60